createdAt,value
2019-05-21T00:01:04.999Z,100310.27
2019-05-21T00:03:33.416Z,100312.03
2019-05-21T00:06:01.849Z,100308.20
2019-05-21T00:08:30.295Z,100311.33
2019-05-21T00:10:58.714Z,100295.76
2019-05-21T00:13:27.143Z,100309.06
2019-05-21T00:15:55.572Z,100304.16
2019-05-21T00:18:24.003Z,100308.33
2019-05-21T00:20:52.420Z,100308.64
2019-05-21T00:23:20.869Z,100310.66
2019-05-21T00:25:49.293Z,100303.38
2019-05-21T00:28:35.797Z,100315.02
2019-05-21T00:31:40.567Z,100312.72
2019-05-21T00:34:45.069Z,100220.78
2019-05-21T00:37:50.105Z,100315.86
2019-05-21T00:40:54.806Z,100321.26
2019-05-21T00:43:45.888Z,100313.16
2019-05-21T00:46:14.327Z,100316.38
2019-05-21T00:48:42.754Z,100318.87
2019-05-21T00:51:11.166Z,100317.92
2019-05-21T00:53:39.631Z,100317.20
2019-05-21T00:56:08.063Z,100316.36
2019-05-21T00:58:36.537Z,100310.75
2019-05-21T01:01:04.962Z,100319.38
2019-05-21T01:03:33.393Z,100316.47
2019-05-21T01:06:01.826Z,100327.59
2019-05-21T01:08:30.247Z,100329.27
2019-05-21T01:10:58.679Z,100326.45
2019-05-21T01:13:27.967Z,100328.33
2019-05-21T01:15:56.455Z,100333.16
2019-05-21T01:18:24.897Z,100327.73
2019-05-21T01:20:53.305Z,100341.05
2019-05-21T01:23:21.761Z,100344.35
2019-05-21T01:25:50.182Z,100345.67
2019-05-21T01:28:18.600Z,100345.27
2019-05-21T01:30:47.021Z,100339.84
2019-05-21T01:33:15.455Z,100338.37
2019-05-21T01:35:43.892Z,100341.50
2019-05-21T01:38:12.406Z,100347.30
2019-05-21T01:40:40.863Z,100352.16
2019-05-21T01:43:09.338Z,100345.48
2019-05-21T01:45:37.791Z,100370.64
2019-05-21T01:48:06.217Z,100349.75
2019-05-21T01:50:34.668Z,100357.18
2019-05-21T01:53:03.227Z,100356.96
2019-05-21T01:55:31.643Z,100358.14
2019-05-21T01:58:00.074Z,100357.17
2019-05-21T02:00:28.515Z,100358.05
2019-05-21T02:02:56.946Z,100345.98
2019-05-21T02:05:33.174Z,100354.27
2019-05-21T02:07:56.107Z,100361.94
2019-05-21T02:10:24.529Z,100353.59
2019-05-21T02:12:53.239Z,100344.67
2019-05-21T02:15:21.682Z,100339.86
2019-05-21T02:17:50.126Z,100343.71
2019-05-21T02:20:18.560Z,100337.81
2019-05-21T02:22:46.997Z,100353.15
2019-05-21T02:25:15.502Z,100353.34
2019-05-21T02:27:43.959Z,100357.70
2019-05-21T02:30:13.377Z,100354.37
2019-05-21T02:32:41.801Z,100361.84
2019-05-21T02:35:10.485Z,100362.36
2019-05-21T02:37:38.907Z,100364.54
2019-05-21T02:40:08.375Z,100363.89
2019-05-21T02:42:36.845Z,100361.72
2019-05-21T02:45:06.909Z,100368.77
2019-05-21T02:47:35.335Z,100365.56
2019-05-21T02:50:05.600Z,100370.38
2019-05-21T02:52:34.118Z,100368.19
2019-05-21T02:55:02.632Z,100369.22
2019-05-21T02:57:42.992Z,100373.78
2019-05-21T03:00:21.502Z,100374.61
2019-05-21T03:02:49.952Z,100363.00
2019-05-21T03:05:18.383Z,100374.86
2019-05-21T03:07:46.916Z,100375.19
2019-05-21T03:10:15.425Z,100371.37
2019-05-21T03:12:43.851Z,100367.10
2019-05-21T03:15:12.399Z,100368.12
2019-05-21T03:17:40.824Z,100361.80
2019-05-21T03:20:10.094Z,100355.70
2019-05-21T03:22:38.536Z,100363.28
2019-05-21T03:25:07.828Z,100358.18
2019-05-21T03:27:36.251Z,100355.48
2019-05-21T03:30:07.461Z,100351.44
2019-05-21T03:32:35.932Z,100361.20
2019-05-21T03:35:07.906Z,100359.84
2019-05-21T03:37:36.330Z,100355.94
2019-05-21T03:40:09.154Z,100355.94
2019-05-21T03:42:37.599Z,100359.79
2019-05-21T03:45:08.063Z,100359.79
2019-05-21T03:47:36.779Z,100366.34
2019-05-21T03:50:06.487Z,100364.80
2019-05-21T03:52:35.026Z,100371.02
2019-05-21T03:55:03.936Z,100370.64
2019-05-21T03:57:32.717Z,100370.44
2019-05-21T04:00:01.270Z,100361.84
2019-05-21T04:02:29.665Z,100367.02
2019-05-21T04:04:58.165Z,100369.93
2019-05-21T04:07:26.550Z,100368.77
2019-05-21T04:09:54.985Z,100377.70
2019-05-21T04:12:23.430Z,100379.23
2019-05-21T04:15:02.160Z,100369.29
2019-05-21T04:17:34.861Z,100383.70
2019-05-21T04:20:02.735Z,100325.59
2019-05-21T04:22:31.205Z,100378.63
2019-05-21T04:24:59.630Z,100376.95
2019-05-21T04:27:28.058Z,100377.09
2019-05-21T04:29:56.494Z,100384.34
2019-05-21T04:32:24.913Z,100386.52
2019-05-21T04:34:53.376Z,100384.66
2019-05-21T04:37:21.803Z,100390.89
2019-05-21T04:39:50.234Z,100394.74
2019-05-21T04:42:18.684Z,100396.73
2019-05-21T04:44:47.131Z,100403.28
2019-05-21T04:47:15.749Z,100414.70
2019-05-21T04:49:44.189Z,100416.51
2019-05-21T04:52:12.612Z,100418.98
2019-05-21T04:54:41.041Z,100421.67
2019-05-21T04:57:09.495Z,100420.27
2019-05-21T04:59:37.919Z,100411.47
2019-05-21T05:02:06.368Z,100417.70
2019-05-21T05:04:34.803Z,100414.81
2019-05-21T05:07:03.312Z,100418.15
2019-05-21T05:09:31.714Z,100413.39
2019-05-21T05:12:00.168Z,100411.62
2019-05-21T05:14:28.649Z,100409.16
2019-05-21T05:16:57.079Z,100412.46
2019-05-21T05:19:25.515Z,100420.23
2019-05-21T05:21:53.939Z,100415.29
2019-05-21T05:24:22.374Z,100419.66
2019-05-21T05:26:50.839Z,100406.17
2019-05-21T05:29:19.314Z,100400.19
2019-05-21T05:31:47.773Z,100394.82
2019-05-21T05:34:16.246Z,100395.78
2019-05-21T05:36:44.644Z,100398.12
2019-05-21T05:39:13.070Z,100403.97
2019-05-21T05:41:41.522Z,100411.48
2019-05-21T05:44:09.947Z,100408.55
2019-05-21T14:34:32.160Z,100701.91
2019-05-21T14:37:00.583Z,100692.98
2019-05-21T14:39:29.076Z,100696.44
2019-05-21T14:41:57.472Z,100701.08
2019-05-21T14:44:25.942Z,100704.29
2019-05-21T14:46:54.367Z,100705.13
2019-05-21T14:49:22.798Z,100703.97
2019-05-21T14:51:51.237Z,100703.99
2019-05-21T14:54:26.658Z,100707.48
2019-05-21T14:56:49.836Z,100708.61
2019-05-21T14:59:18.346Z,100703.61
2019-05-21T15:01:46.775Z,100708.34
2019-05-21T15:04:15.385Z,100707.44
2019-05-21T15:06:43.906Z,100711.34
2019-05-21T15:09:12.341Z,100713.13
2019-05-21T15:11:40.798Z,100712.02
2019-05-21T15:14:09.227Z,100714.28
2019-05-21T15:16:37.665Z,100712.20
2019-05-21T15:19:06.170Z,100714.60
2019-05-21T15:21:38.858Z,100714.52
2019-05-21T15:24:08.316Z,100716.77
2019-05-21T15:26:37.073Z,100716.52
2019-05-21T15:29:05.511Z,100716.36
2019-05-21T15:31:33.949Z,100715.56
2019-05-21T15:34:02.391Z,100720.67
2019-05-21T15:36:30.837Z,100722.89
2019-05-21T15:38:59.313Z,100718.41
2019-05-21T15:41:27.763Z,100728.22
2019-05-21T15:43:56.161Z,100728.93
2019-05-21T15:46:24.596Z,100733.98
2019-05-21T15:48:53.607Z,100732.33
2019-05-21T15:51:22.175Z,100735.59
2019-05-21T15:53:50.640Z,100742.77
2019-05-21T15:56:19.095Z,100745.02
2019-05-21T15:58:47.617Z,100745.37
2019-05-21T16:01:16.184Z,100748.43
2019-05-21T16:03:44.656Z,100740.20
2019-05-21T16:06:13.090Z,100742.95
2019-05-21T16:08:41.597Z,100750.03
2019-05-21T16:11:27.544Z,100754.39
2019-05-21T16:13:40.716Z,100756.27
2019-05-21T16:16:09.131Z,100755.94
2019-05-21T16:18:37.575Z,100761.16
2019-05-21T16:21:05.997Z,100761.16
2019-05-21T16:23:34.460Z,100754.81
2019-05-21T16:26:02.887Z,100764.69
2019-05-21T16:28:31.324Z,100764.86
2019-05-21T16:30:59.836Z,100760.88
2019-05-21T16:33:28.264Z,100761.33
2019-05-21T16:35:56.702Z,100768.44
2019-05-21T16:38:25.213Z,100759.37
2019-05-21T16:40:53.647Z,100768.96
2019-05-21T16:43:22.337Z,100777.52
2019-05-21T16:45:50.789Z,100769.14
2019-05-21T16:48:20.306Z,100776.72
2019-05-21T16:50:48.736Z,100769.98
2019-05-21T16:53:17.178Z,100778.06
2019-05-21T16:55:45.607Z,100776.25
2019-05-21T16:58:14.211Z,100776.60
2019-05-21T17:00:42.745Z,100780.29
2019-05-21T17:03:11.213Z,100787.70
2019-05-21T17:05:39.649Z,100788.55
2019-05-21T17:08:08.179Z,100783.67
2019-05-21T17:10:41.403Z,100787.38
2019-05-21T17:13:14.933Z,100785.19
2019-05-21T17:15:43.560Z,100786.36
2019-05-21T17:18:12.099Z,100794.27
2019-05-21T17:20:40.765Z,100788.55
2019-05-21T17:23:09.417Z,100789.57
2019-05-21T17:25:38.190Z,100791.57
2019-05-21T17:28:06.697Z,100792.92
2019-05-21T17:30:35.170Z,100796.96
2019-05-21T17:33:03.698Z,100804.41
2019-05-21T17:35:32.213Z,100797.34
2019-05-21T17:38:00.633Z,100803.88
2019-05-21T17:40:29.127Z,100799.37
2019-05-21T17:42:57.558Z,100804.39
2019-05-21T17:45:25.998Z,100809.61
2019-05-21T17:47:54.439Z,100806.42
2019-05-21T17:50:23.135Z,100804.73
2019-05-21T17:52:51.781Z,100809.95
2019-05-21T17:55:20.284Z,100808.14
2019-05-21T17:57:48.851Z,100815.87
2019-05-21T18:00:20.437Z,100813.52
2019-05-21T18:02:49.472Z,100813.52
2019-05-21T18:05:18.725Z,100813.52
2019-05-21T18:07:47.234Z,100818.23
2019-05-21T18:10:16.742Z,100825.62
2019-05-21T18:12:45.701Z,100814.23
2019-05-21T18:15:16.135Z,100822.09
2019-05-21T18:17:44.777Z,100831.88
2019-05-21T18:20:15.396Z,100827.68
2019-05-21T18:22:45.683Z,100831.38
2019-05-21T18:25:14.733Z,100834.56
2019-05-21T18:27:43.233Z,100841.95
2019-05-21T18:30:13.412Z,100838.27
2019-05-21T18:32:41.852Z,100848.01
2019-05-21T18:35:11.322Z,100845.66
2019-05-21T18:37:39.799Z,100849.18
2019-05-21T18:40:09.388Z,100854.05
2019-05-21T18:42:37.879Z,100847.84
2019-05-21T18:45:06.683Z,100862.12
2019-05-21T18:47:35.113Z,100865.00
2019-05-21T18:50:04.972Z,100864.33
2019-05-21T18:52:33.453Z,100875.92
2019-05-21T18:55:01.895Z,100874.04
2019-05-21T18:57:30.315Z,100881.29
2019-05-21T18:59:58.772Z,100885.48
2019-05-21T19:02:27.201Z,100890.52
2019-05-21T19:04:55.639Z,100900.94
2019-05-21T19:07:24.134Z,100901.61
2019-05-21T19:09:52.578Z,100903.12
2019-05-21T19:12:21.074Z,100907.32
2019-05-21T19:14:49.545Z,100915.22
2019-05-21T19:17:17.982Z,100914.03
2019-05-21T19:19:46.427Z,100926.30
2019-05-21T19:22:14.862Z,100923.61
2019-05-21T19:24:43.284Z,100927.14
2019-05-21T19:27:11.809Z,100920.42
2019-05-21T19:29:40.305Z,100932.50
2019-05-21T19:32:08.743Z,100933.70
2019-05-21T19:34:37.822Z,100932.16
2019-05-21T19:37:06.474Z,100932.69
2019-05-21T19:39:36.709Z,100927.30
2019-05-21T19:42:05.188Z,100928.15
2019-05-21T19:44:33.979Z,100932.33
2019-05-21T19:47:02.478Z,100937.05
2019-05-21T19:49:30.965Z,100934.53
2019-05-21T19:51:59.417Z,100948.30
2019-05-21T19:54:28.108Z,100942.23
2019-05-21T19:56:58.346Z,100945.09
2019-05-21T19:59:27.788Z,100936.70
2019-05-21T20:02:01.083Z,100938.70
2019-05-21T20:04:30.150Z,100943.06
2019-05-21T20:06:59.437Z,100947.26
2019-05-21T20:09:30.029Z,100946.58
2019-05-21T20:11:58.628Z,100953.47
2019-05-21T20:14:27.838Z,100954.81
2019-05-21T20:16:58.903Z,100946.58
2019-05-21T20:19:28.043Z,100948.62
2019-05-21T20:21:56.517Z,100948.42
2019-05-21T20:24:25.443Z,100950.97
2019-05-21T20:26:54.411Z,100955.50
2019-05-21T20:29:23.209Z,100951.47
2019-05-21T20:31:52.958Z,100966.22
2019-05-21T20:34:21.956Z,100971.09
2019-05-21T20:36:50.387Z,100970.23
2019-05-21T20:39:19.364Z,100973.58
2019-05-21T20:41:48.639Z,100969.06
2019-05-21T20:44:18.106Z,100966.54
2019-05-21T20:46:46.732Z,100962.31
2019-05-21T20:49:15.819Z,100971.50
2019-05-21T20:51:44.666Z,100966.63
2019-05-21T20:54:14.531Z,100964.27
2019-05-21T20:56:43.535Z,100966.95
2019-05-21T20:59:12.475Z,100963.45
2019-05-21T21:01:42.340Z,100956.88
2019-05-21T21:04:11.314Z,100959.41
2019-05-21T21:06:40.520Z,100957.72
2019-05-21T21:09:10.549Z,100972.12
2019-05-21T21:11:39.411Z,100963.39
2019-05-21T21:14:17.982Z,100958.87
2019-05-21T21:16:40.106Z,100958.48
2019-05-21T21:19:09.015Z,100961.81
2019-05-21T21:21:38.245Z,100967.19
2019-05-21T21:24:06.679Z,100974.90
2019-05-21T21:26:35.953Z,100969.84
2019-05-21T21:29:04.647Z,100969.16
2019-05-21T21:31:33.141Z,100982.73
2019-05-21T21:34:01.645Z,100983.23
2019-05-21T21:36:30.630Z,100974.47
2019-05-21T21:39:00.502Z,100979.18
2019-05-21T21:41:29.555Z,100975.81
2019-05-21T21:43:58.153Z,100983.36
2019-05-21T21:46:26.634Z,100987.23
2019-05-21T21:48:55.260Z,100983.67
2019-05-21T21:51:24.920Z,100988.54
2019-05-21T21:53:53.484Z,100976.94
2019-05-21T21:56:22.422Z,100982.83
2019-05-21T21:58:50.914Z,100982.30
2019-05-21T22:01:35.665Z,100986.48
2019-05-21T22:04:06.024Z,100988.12
2019-05-21T22:06:35.666Z,100995.52
2019-05-21T22:09:07.722Z,100985.92
2019-05-21T22:11:37.131Z,100987.29
2019-05-21T22:14:05.796Z,100978.05
2019-05-21T22:16:34.795Z,100978.90
2019-05-21T22:19:03.365Z,100982.23
2019-05-21T22:21:32.749Z,100993.65
2019-05-21T22:24:01.747Z,100991.81
2019-05-21T22:26:30.686Z,100986.37
2019-05-21T22:28:59.138Z,100994.77
2019-05-21T22:31:27.613Z,100990.13
2019-05-21T22:33:56.030Z,101000.81
2019-05-21T22:36:24.621Z,100998.25
2019-05-21T22:38:53.083Z,100991.55
2019-05-21T22:41:21.505Z,100994.57
2019-05-21T22:43:50.309Z,100986.88
2019-05-21T22:46:18.758Z,100994.38
2019-05-21T22:48:47.173Z,100997.94
2019-05-21T22:51:15.602Z,100990.70
2019-05-21T22:53:44.423Z,100999.44
2019-05-21T22:56:12.850Z,100994.91
2019-05-21T22:58:41.306Z,100997.41
2019-05-21T23:01:10.773Z,101004.95
2019-05-21T23:03:39.377Z,101006.45
2019-05-21T23:06:07.875Z,101005.30
2019-05-21T23:08:36.783Z,100998.25
2019-05-21T23:11:05.223Z,101004.95
2019-05-21T23:13:33.690Z,101008.78
2019-05-21T23:16:02.867Z,101006.95
2019-05-21T23:18:31.840Z,101003.08
2019-05-21T23:21:02.079Z,101014.68
2019-05-21T23:23:32.298Z,101010.13
2019-05-21T23:26:01.128Z,101014.80
2019-05-21T23:28:31.250Z,101007.55
2019-05-21T23:31:01.998Z,101011.73
2019-05-21T23:33:30.692Z,100998.17
2019-05-21T23:36:00.318Z,101005.71
2019-05-21T23:38:28.742Z,101008.70
2019-05-21T23:40:58.426Z,101013.75
2019-05-21T23:43:26.704Z,101017.42
2019-05-21T23:45:55.648Z,101012.42
2019-05-21T23:48:24.614Z,101016.25
2019-05-21T23:50:53.090Z,101006.70
2019-05-21T23:53:21.498Z,101012.52
2019-05-21T23:55:50.698Z,101015.86
2019-05-21T23:58:20.049Z,101013.37
